Time;durP1;ratioP1;P1;durP2;ratioP2;P2;SDS_P1;SDS_P2;PMS_P1;PMS_P2;Temp;Humidity;BMP_temperature;BMP_pressure;BME280_temperature;BME280_humidity;BME280_pressure;Samples;Min_cycle;Max_cycle;Signal;HPM_P1;HPM_P2
2023/01/14 00:01:13;;;;;;;0.82;0.77;;;19.50;59.00;;;;;;4999801;28;20195;-66
2023/01/14 00:03:40;;;;;;;1.20;0.90;;;19.40;58.80;;;;;;5019111;28;20227;-66
2023/01/14 00:06:06;;;;;;;1.27;0.88;;;19.50;58.90;;;;;;5023217;28;20215;-66
2023/01/14 00:08:32;;;;;;;2.15;1.17;;;19.50;58.90;;;;;;5031324;28;20220;-66
2023/01/14 00:11:07;;;;;;;1.63;1.15;;;19.50;58.90;;;;;;5018909;28;20184;-66
2023/01/14 00:13:37;;;;;;;1.27;1.08;;;19.40;58.80;;;;;;5022602;28;20560;-66
2023/01/14 00:16:05;;;;;;;1.63;1.20;;;19.40;58.80;;;;;;5048693;28;20644;-66
2023/01/14 00:18:33;;;;;;;1.70;0.88;;;19.40;58.80;;;;;;5032643;28;20231;-66
2023/01/14 00:21:12;;;;;;;1.25;1.08;;;19.40;58.80;;;;;;5047798;28;20239;-66
2023/01/14 00:23:39;;;;;;;2.00;1.30;;;19.40;58.80;;;;;;4998470;28;20195;-66
2023/01/14 00:26:16;;;;;;;2.08;1.30;;;19.50;58.90;;;;;;5014436;28;20295;-66
2023/01/14 00:28:49;;;;;;;1.15;1.05;;;19.50;58.90;;;;;;5039216;28;20207;-66
2023/01/14 00:31:20;;;;;;;1.17;0.90;;;19.40;58.80;;;;;;5014172;28;20229;-66
2023/01/14 00:33:47;;;;;;;1.77;1.30;;;19.40;58.80;;;;;;5034107;28;20191;-66
2023/01/14 00:36:17;;;;;;;1.30;1.20;;;19.40;58.80;;;;;;5014257;28;20274;-66
2023/01/14 00:38:43;;;;;;;1.15;1.02;;;19.40;58.70;;;;;;5013938;28;20241;-66
2023/01/14 00:41:13;;;;;;;1.27;0.80;;;19.40;58.70;;;;;;5004837;28;20187;-66
2023/01/14 00:43:46;;;;;;;1.92;1.17;;;19.40;58.70;;;;;;5033128;28;20183;-66
2023/01/14 00:46:15;;;;;;;2.13;1.30;;;19.40;58.70;;;;;;5029221;28;20215;-66
2023/01/14 00:48:42;;;;;;;1.60;0.98;;;19.40;58.70;;;;;;5014140;28;20275;-67
2023/01/14 00:51:10;;;;;;;1.80;1.40;;;19.40;58.70;;;;;;5028984;28;20195;-66
2023/01/14 00:53:38;;;;;;;1.50;0.95;;;19.40;58.70;;;;;;5025308;28;20191;-66
2023/01/14 00:56:06;;;;;;;1.20;0.90;;;19.50;58.80;;;;;;5019464;28;20281;-66
2023/01/14 00:58:35;;;;;;;1.42;1.17;;;19.40;58.70;;;;;;5030240;28;20184;-66
2023/01/14 01:01:02;;;;;;;1.77;0.90;;;19.50;58.80;;;;;;5027511;28;20189;-66
2023/01/14 01:03:28;;;;;;;1.58;1.23;;;19.40;58.70;;;;;;5016057;28;20196;-67
2023/01/14 01:05:54;;;;;;;1.27;0.93;;;19.50;58.70;;;;;;5021709;28;20214;-66
2023/01/14 01:08:22;;;;;;;1.73;1.00;;;19.50;58.80;;;;;;5026675;28;20184;-65
2023/01/14 01:10:52;;;;;;;0.98;0.80;;;19.40;58.60;;;;;;5015070;28;20184;-66
2023/01/14 01:13:18;;;;;;;2.75;0.88;;;19.50;58.70;;;;;;5005531;28;20177;-66
2023/01/14 01:15:44;;;;;;;1.67;1.08;;;19.40;58.60;;;;;;5008455;28;20203;-66
2023/01/14 01:18:12;;;;;;;1.55;0.98;;;19.50;58.70;;;;;;5048410;28;20199;-66
2023/01/14 01:20:42;;;;;;;1.42;0.90;;;19.50;58.70;;;;;;5013944;28;20191;-66
2023/01/14 01:23:12;;;;;;;2.17;1.30;;;19.40;58.60;;;;;;5027895;28;20187;-66
2023/01/14 01:25:38;;;;;;;1.38;1.02;;;19.50;58.70;;;;;;5024829;28;20310;-66
2023/01/14 01:28:05;;;;;;;1.85;1.20;;;19.40;58.60;;;;;;5024907;28;20202;-66
2023/01/14 01:30:31;;;;;;;1.00;0.90;;;19.40;58.60;;;;;;5040394;28;20180;-66
2023/01/14 01:32:57;;;;;;;1.13;0.70;;;19.40;58.60;;;;;;4997066;28;20242;-66
2023/01/14 01:35:24;;;;;;;1.63;0.95;;;19.40;59.20;;;;;;5029790;28;20294;-66
2023/01/14 01:37:53;;;;;;;0.80;0.80;;;19.40;58.60;;;;;;5025229;28;20535;-66
2023/01/14 01:40:19;;;;;;;1.45;1.00;;;19.40;58.60;;;;;;5032972;28;20182;-66
2023/01/14 01:42:57;;;;;;;2.00;1.02;;;19.40;58.60;;;;;;5049431;28;20191;-66
2023/01/14 01:45:46;;;;;;;1.83;0.90;;;19.40;58.60;;;;;;5024380;28;20249;-66
2023/01/14 01:48:20;;;;;;;1.38;0.80;;;19.40;58.60;;;;;;5027827;28;20190;-66
2023/01/14 01:50:54;;;;;;;2.15;0.90;;;19.40;58.60;;;;;;5040777;28;20190;-66
2023/01/14 01:53:20;;;;;;;1.40;0.90;;;19.40;58.60;;;;;;5049155;28;20175;-66
2023/01/14 01:55:55;;;;;;;1.58;1.15;;;19.40;58.60;;;;;;5016178;28;20261;-66
2023/01/14 01:58:23;;;;;;;1.92;0.85;;;19.40;58.60;;;;;;5012520;28;20242;-65
2023/01/14 02:00:49;;;;;;;1.63;1.30;;;19.40;58.60;;;;;;5024307;28;20652;-66
2023/01/14 02:03:35;;;;;;;1.20;0.80;;;19.40;58.60;;;;;;5016191;28;20176;-66
2023/01/14 02:06:01;;;;;;;0.80;0.80;;;19.40;58.60;;;;;;5022816;28;20210;-66
2023/01/14 02:08:27;;;;;;;2.38;0.90;;;19.40;58.60;;;;;;5020366;28;20188;-66
2023/01/14 02:11:33;;;;;;;2.13;1.08;;;19.40;58.60;;;;;;5021246;28;20230;-66
2023/01/14 02:14:39;;;;;;;1.25;0.80;;;19.40;58.60;;;;;;5001347;28;20211;-66
2023/01/14 02:17:41;;;;;;;1.05;0.95;;;19.50;58.70;;;;;;5045698;28;20188;-66
2023/01/14 02:20:29;;;;;;;2.03;1.00;;;19.40;58.60;;;;;;5027713;28;20185;-66
2023/01/14 02:23:26;;;;;;;1.15;0.88;;;19.50;58.70;;;;;;5020526;28;20183;-66
2023/01/14 02:26:16;;;;;;;0.70;0.70;;;19.40;58.60;;;;;;5037395;28;20216;-66
2023/01/14 02:29:14;;;;;;;0.95;0.80;;;19.40;58.60;;;;;;5003495;28;20215;-66
2023/01/14 02:31:48;;;;;;;1.08;0.90;;;19.40;58.60;;;;;;5022239;28;20203;-66
2023/01/14 02:34:32;;;;;;;1.38;0.80;;;19.40;58.60;;;;;;5031884;28;20276;-67
2023/01/14 02:37:13;;;;;;;1.42;0.82;;;19.40;58.60;;;;;;5024875;28;20190;-66
2023/01/14 02:40:20;;;;;;;0.65;0.65;;;19.40;58.60;;;;;;5046380;28;20190;-66
2023/01/14 02:46:49;;;;;;;0.88;0.88;;;19.40;58.60;;;;;;5023612;28;20231;-66
2023/01/14 02:49:26;;;;;;;0.93;0.90;;;19.40;58.60;;;;;;5007097;28;20184;-66
2023/01/14 02:51:56;;;;;;;1.33;0.88;;;19.40;58.50;;;;;;5012140;28;20191;-66
2023/01/14 02:54:23;;;;;;;1.33;0.90;;;19.40;58.50;;;;;;4995576;28;20211;-66
2023/01/14 02:56:53;;;;;;;1.10;0.77;;;19.40;58.50;;;;;;5014602;28;20210;-66
2023/01/14 02:59:39;;;;;;;1.25;1.00;;;19.40;58.50;;;;;;5048182;28;20237;-66
2023/01/14 03:02:24;;;;;;;0.80;0.80;;;19.40;58.50;;;;;;5041496;28;20191;-66
2023/01/14 03:05:25;;;;;;;0.90;0.75;;;19.40;58.50;;;;;;5006989;28;20203;-66
2023/01/14 03:08:38;;;;;;;0.82;0.82;;;19.40;58.50;;;;;;5014977;28;20249;-66
2023/01/14 03:11:08;;;;;;;0.93;0.77;;;19.40;58.50;;;;;;4986429;28;20211;-66
2023/01/14 03:14:02;;;;;;;1.13;0.80;;;19.40;58.50;;;;;;5011181;28;20691;-65
2023/01/14 03:16:45;;;;;;;0.60;0.60;;;19.40;58.50;;;;;;5044360;28;20203;-66
2023/01/14 03:19:24;;;;;;;1.08;0.65;;;19.40;58.50;;;;;;5025462;28;20184;-65
2023/01/14 03:21:57;;;;;;;0.95;0.60;;;19.40;58.50;;;;;;5027641;28;20194;-66
2023/01/14 03:24:38;;;;;;;0.60;0.60;;;19.40;58.50;;;;;;5040413;28;20214;-66
2023/01/14 03:27:13;;;;;;;0.88;0.63;;;19.50;58.60;;;;;;5000461;28;20279;-66
2023/01/14 03:29:44;;;;;;;0.93;0.82;;;19.40;58.50;;;;;;5021055;28;20179;-66
2023/01/14 03:32:26;;;;;;;1.15;1.05;;;19.40;58.40;;;;;;5019629;28;20238;-66
2023/01/14 03:35:17;;;;;;;1.30;0.80;;;19.40;58.50;;;;;;5006020;28;20210;-66
2023/01/14 03:37:58;;;;;;;0.68;0.60;;;19.40;58.50;;;;;;5012511;28;20252;-65
2023/01/14 03:40:28;;;;;;;1.00;0.70;;;19.40;58.50;;;;;;5002485;28;20265;-66
2023/01/14 03:43:06;;;;;;;0.80;0.80;;;19.50;58.60;;;;;;5010949;28;20187;-67
2023/01/14 03:45:38;;;;;;;0.95;0.75;;;19.40;58.50;;;;;;5027975;28;20270;-66
2023/01/14 03:48:06;;;;;;;1.42;0.77;;;19.40;58.50;;;;;;5006157;28;20273;-66
2023/01/14 03:51:00;;;;;;;1.10;0.90;;;19.40;58.40;;;;;;5022254;28;20180;-66
2023/01/14 03:53:40;;;;;;;1.10;0.90;;;19.40;58.40;;;;;;5002917;28;20191;-66
2023/01/14 03:56:35;;;;;;;1.40;0.90;;;19.40;58.40;;;;;;5019245;28;20283;-65
2023/01/14 03:59:05;;;;;;;1.15;0.90;;;19.50;58.50;;;;;;5016190;28;20183;-66
2023/01/14 04:01:54;;;;;;;1.45;1.08;;;19.40;58.40;;;;;;5029356;28;20206;-66
2023/01/14 04:04:24;;;;;;;1.00;0.90;;;19.40;58.40;;;;;;5020284;28;20207;-66
2023/01/14 04:06:51;;;;;;;1.75;0.90;;;19.40;58.30;;;;;;5013232;28;20707;-66
2023/01/14 04:09:17;;;;;;;1.35;0.90;;;19.40;58.30;;;;;;5025346;28;20179;-66
2023/01/14 04:11:43;;;;;;;2.90;1.00;;;19.40;58.30;;;;;;5037022;28;20184;-66
2023/01/14 04:16:54;;;;;;;0.70;0.70;;;19.40;58.40;;;;;;5023080;28;20198;-66
2023/01/14 04:19:19;;;;;;;1.55;0.90;;;19.40;58.40;;;;;;5022044;28;20179;-66
2023/01/14 04:21:45;;;;;;;1.42;1.02;;;19.40;58.40;;;;;;5039152;28;20191;-66
2023/01/14 04:24:11;;;;;;;1.77;1.05;;;19.50;58.40;;;;;;5030573;28;20207;-66
2023/01/14 04:26:37;;;;;;;1.13;0.80;;;19.40;58.30;;;;;;5005980;28;20215;-66
2023/01/14 04:29:02;;;;;;;1.33;0.90;;;19.40;58.30;;;;;;5017911;28;20192;-65
2023/01/14 04:31:28;;;;;;;1.00;0.85;;;19.40;58.40;;;;;;5009885;28;20232;-66
2023/01/14 04:33:54;;;;;;;0.98;0.90;;;19.40;58.40;;;;;;5030489;28;20268;-66
2023/01/14 04:36:19;;;;;;;1.60;0.90;;;19.40;59.00;;;;;;5046949;28;20179;-66
2023/01/14 04:38:45;;;;;;;0.80;0.80;;;19.50;58.50;;;;;;5045294;28;20188;-66
2023/01/14 04:42:26;;;;;;;1.17;0.85;;;19.40;58.40;;;;;;5043550;28;20381;-66
2023/01/14 04:46:47;;;;;;;0.80;0.73;;;19.40;58.40;;;;;;4930469;29;20299;-68
2023/01/14 04:49:13;;;;;;;1.05;0.70;;;19.40;58.40;;;;;;4907732;29;20200;-68
2023/01/14 04:51:39;;;;;;;0.80;0.60;;;19.40;58.40;;;;;;4911843;29;20200;-68
2023/01/14 04:54:05;;;;;;;1.13;0.90;;;19.40;58.40;;;;;;4928155;29;20194;-69
2023/01/14 04:56:30;;;;;;;1.50;0.80;;;19.40;58.40;;;;;;4932670;29;20195;-69
2023/01/14 04:59:01;;;;;;;1.13;0.70;;;19.40;58.40;;;;;;4930977;29;20194;-69
2023/01/14 05:01:28;;;;;;;1.05;0.88;;;19.40;58.50;;;;;;4941871;29;20238;-69
2023/01/14 05:03:58;;;;;;;1.05;0.80;;;19.40;58.50;;;;;;4944254;29;20194;-69
2023/01/14 05:06:27;;;;;;;1.00;0.70;;;19.50;58.60;;;;;;4934731;29;20698;-69
2023/01/14 05:08:54;;;;;;;1.92;0.70;;;19.40;58.50;;;;;;4954859;29;20282;-69
2023/01/14 05:11:20;;;;;;;0.75;0.60;;;19.50;58.60;;;;;;4955741;29;20269;-69
2023/01/14 05:13:45;;;;;;;0.80;0.65;;;19.40;58.50;;;;;;4940553;29;20676;-69
2023/01/14 05:16:11;;;;;;;0.82;0.70;;;19.50;58.60;;;;;;4939417;29;20206;-69
2023/01/14 05:18:37;;;;;;;1.80;0.90;;;19.50;58.60;;;;;;4946953;29;20241;-69
2023/01/14 05:21:04;;;;;;;1.05;0.70;;;19.50;58.60;;;;;;4931885;29;20190;-69
2023/01/14 05:23:30;;;;;;;0.88;0.80;;;19.50;58.60;;;;;;4920151;29;20199;-69
2023/01/14 05:25:56;;;;;;;0.77;0.60;;;19.50;58.60;;;;;;4938434;29;20218;-69
2023/01/14 05:28:22;;;;;;;0.95;0.68;;;19.50;59.20;;;;;;4939055;29;20199;-69
2023/01/14 05:30:47;;;;;;;0.85;0.70;;;19.50;58.60;;;;;;4938878;29;20640;-69
2023/01/14 05:33:13;;;;;;;1.00;0.70;;;19.50;58.60;;;;;;4939159;29;20186;-69
2023/01/14 05:35:39;;;;;;;1.52;0.80;;;19.40;58.50;;;;;;4930315;29;20248;-69
2023/01/14 05:38:06;;;;;;;1.85;0.80;;;19.50;58.60;;;;;;4946657;29;20223;-69
2023/01/14 05:40:32;;;;;;;1.52;0.70;;;19.50;58.60;;;;;;4954696;29;20197;-69
2023/01/14 05:45:51;;;;;;;1.10;0.70;;;19.50;58.60;;;;;;4957385;28;20240;-69
2023/01/14 05:48:25;;;;;;;1.20;0.82;;;19.50;58.60;;;;;;4966277;28;20197;-69
2023/01/14 05:50:54;;;;;;;0.98;0.82;;;19.50;58.60;;;;;;4957779;28;20244;-69
2023/01/14 05:53:21;;;;;;;1.02;0.70;;;19.50;58.60;;;;;;4942086;28;20200;-69
2023/01/14 05:55:48;;;;;;;2.03;0.80;;;19.50;58.60;;;;;;4949674;28;20313;-69
2023/01/14 05:58:15;;;;;;;0.85;0.70;;;19.50;58.60;;;;;;4941798;28;20232;-69
2023/01/14 06:06:33;;;;;;;1.40;0.90;;;19.50;58.60;;;;;;4959527;28;20224;-69
2023/01/14 06:09:09;;;;;;;1.35;0.70;;;19.50;58.60;;;;;;4957299;28;20197;-69
2023/01/14 06:11:36;;;;;;;0.90;0.80;;;19.50;58.60;;;;;;4957319;28;20193;-69
2023/01/14 06:14:03;;;;;;;1.75;0.90;;;19.50;58.60;;;;;;4941450;28;20194;-69
2023/01/14 06:16:39;;;;;;;1.55;0.90;;;19.50;58.60;;;;;;4974675;28;20654;-69
2023/01/14 06:19:08;;;;;;;1.08;0.80;;;19.50;58.60;;;;;;4966671;28;20178;-69
2023/01/14 06:21:34;;;;;;;1.70;1.20;;;19.50;59.20;;;;;;4941591;28;20205;-69
2023/01/14 06:24:00;;;;;;;0.63;0.60;;;19.40;58.50;;;;;;4957102;28;20656;-69
2023/01/14 06:26:29;;;;;;;1.75;0.93;;;19.50;58.60;;;;;;4941148;28;20208;-69
2023/01/14 06:29:00;;;;;;;1.60;0.80;;;19.50;58.60;;;;;;4948875;28;20195;-69
2023/01/14 06:31:28;;;;;;;0.93;0.63;;;19.50;58.60;;;;;;4957501;28;20292;-69
2023/01/14 06:33:57;;;;;;;1.73;0.80;;;19.50;58.60;;;;;;4954978;28;20197;-69
2023/01/14 06:36:24;;;;;;;1.52;0.88;;;19.50;58.60;;;;;;4963100;28;20218;-70
2023/01/14 06:38:51;;;;;;;1.75;1.02;;;19.40;58.50;;;;;;4938792;28;20207;-70
2023/01/14 06:41:17;;;;;;;1.17;0.70;;;19.50;58.60;;;;;;4974248;28;20186;-70
2023/01/14 06:43:44;;;;;;;1.60;0.88;;;19.40;58.50;;;;;;4970025;28;20208;-70
2023/01/14 06:46:12;;;;;;;2.38;1.08;;;19.50;58.60;;;;;;4966143;28;20673;-69
2023/01/14 06:48:39;;;;;;;1.02;0.80;;;19.50;58.60;;;;;;4973889;28;20178;-72
2023/01/14 06:51:07;;;;;;;1.40;1.00;;;19.40;58.50;;;;;;4965881;28;20192;-72
2023/01/14 06:53:34;;;;;;;1.05;0.90;;;19.40;58.50;;;;;;4972776;28;20260;-72
2023/01/14 06:56:09;;;;;;;1.58;1.00;;;19.50;58.70;;;;;;4962306;28;20692;-72
2023/01/14 06:58:34;;;;;;;2.33;0.85;;;19.50;58.60;;;;;;4953283;29;20197;-72
2023/01/14 07:01:05;;;;;;;2.15;1.20;;;19.50;58.70;;;;;;4963878;28;20284;-72
2023/01/14 07:03:31;;;;;;;1.90;0.85;;;19.50;58.70;;;;;;4942100;29;20212;-72
2023/01/14 07:05:59;;;;;;;1.40;0.95;;;19.50;58.70;;;;;;4971315;28;20237;-72
2023/01/14 07:08:26;;;;;;;1.77;0.90;;;19.50;58.70;;;;;;4959174;28;20193;-72
2023/01/14 07:10:52;;;;;;;2.30;0.90;;;19.50;58.70;;;;;;4966394;28;20200;-72
2023/01/14 07:13:20;;;;;;;1.48;0.70;;;19.50;58.70;;;;;;4972485;28;20197;-72
2023/01/14 07:15:47;;;;;;;2.42;0.82;;;19.50;58.70;;;;;;4971758;28;20224;-72
2023/01/14 07:18:14;;;;;;;2.03;1.00;;;19.40;58.60;;;;;;4972633;28;20565;-72
2023/01/14 07:20:41;;;;;;;1.30;0.95;;;19.40;58.50;;;;;;4953054;29;20202;-72
2023/01/14 07:23:07;;;;;;;1.52;0.93;;;19.50;58.70;;;;;;4937323;29;20190;-72
2023/01/14 07:25:35;;;;;;;1.48;0.93;;;19.50;58.60;;;;;;4952476;29;20257;-72
2023/01/14 07:28:01;;;;;;;2.78;1.08;;;19.50;58.60;;;;;;4967374;28;20332;-72
2023/01/14 07:30:27;;;;;;;1.65;0.90;;;19.50;58.60;;;;;;4971197;28;20216;-72
2023/01/14 07:32:53;;;;;;;2.80;1.30;;;19.40;58.60;;;;;;4956477;28;20233;-72
2023/01/14 07:35:19;;;;;;;2.33;1.02;;;19.50;58.70;;;;;;4937222;29;20210;-72
2023/01/14 07:37:44;;;;;;;2.65;1.00;;;19.40;58.50;;;;;;4962200;28;20244;-71
2023/01/14 07:40:11;;;;;;;2.08;1.10;;;19.50;58.70;;;;;;4972330;28;20186;-71
2023/01/14 07:42:37;;;;;;;2.33;0.93;;;19.50;58.60;;;;;;4969176;28;20186;-71
2023/01/14 07:45:03;;;;;;;1.75;0.88;;;19.50;58.60;;;;;;4973234;28;20574;-71
2023/01/14 07:47:29;;;;;;;1.80;1.20;;;19.40;58.60;;;;;;4972357;28;20263;-71
2023/01/14 07:49:54;;;;;;;2.25;1.00;;;19.40;58.50;;;;;;4971969;28;20196;-71
2023/01/14 07:52:20;;;;;;;1.42;0.93;;;19.50;58.60;;;;;;4973368;28;20208;-71
2023/01/14 07:54:46;;;;;;;1.83;1.05;;;19.50;58.70;;;;;;4963243;28;20216;-71
2023/01/14 07:57:13;;;;;;;1.02;0.80;;;19.40;58.60;;;;;;4931337;28;20196;-71
2023/01/14 07:59:39;;;;;;;0.95;0.70;;;19.40;58.50;;;;;;4971847;28;20582;-71
2023/01/14 08:02:11;;;;;;;2.42;1.08;;;19.50;58.60;;;;;;4955810;28;20189;-71
2023/01/14 08:04:37;;;;;;;2.03;1.13;;;19.50;58.60;;;;;;4972371;28;20210;-71
2023/01/14 08:07:08;;;;;;;3.10;0.95;;;19.50;58.60;;;;;;4960748;28;20313;-71
2023/01/14 08:09:35;;;;;;;1.90;0.80;;;19.50;58.60;;;;;;4952509;29;20206;-71
2023/01/14 08:12:01;;;;;;;2.28;1.00;;;19.50;58.60;;;;;;4930975;28;20225;-71
2023/01/14 08:14:27;;;;;;;1.50;1.20;;;19.50;58.60;;;;;;4967587;28;20230;-71
2023/01/14 08:16:53;;;;;;;0.77;0.77;;;19.50;58.60;;;;;;4954866;28;20273;-71
2023/01/14 08:19:18;;;;;;;3.33;1.33;;;19.50;58.60;;;;;;4973032;28;20174;-72
2023/01/14 08:21:44;;;;;;;2.00;1.20;;;19.50;58.60;;;;;;4957723;28;20199;-72
2023/01/14 08:24:10;;;;;;;1.70;1.17;;;19.50;58.60;;;;;;4981921;28;20248;-72
2023/01/14 08:26:36;;;;;;;1.15;0.80;;;19.50;58.60;;;;;;4956297;28;20217;-72
2023/01/14 08:29:02;;;;;;;1.80;1.15;;;19.50;58.60;;;;;;4943362;28;20314;-72
2023/01/14 08:31:28;;;;;;;1.85;1.10;;;19.50;58.60;;;;;;4959388;28;20581;-71
2023/01/14 08:33:55;;;;;;;1.92;1.10;;;19.50;58.60;;;;;;4957141;28;20281;-72
2023/01/14 08:36:21;;;;;;;1.77;0.98;;;19.50;58.60;;;;;;4975641;28;20197;-72
2023/01/14 08:38:51;;;;;;;1.48;1.00;;;19.50;58.60;;;;;;4974960;28;20196;-72
2023/01/14 08:41:18;;;;;;;1.67;1.00;;;19.50;58.60;;;;;;4951649;28;20193;-71
2023/01/14 08:43:48;;;;;;;1.80;1.13;;;19.50;58.60;;;;;;4959277;28;20181;-72
2023/01/14 08:46:15;;;;;;;4.68;1.42;;;19.50;58.60;;;;;;4974896;28;20280;-72
2023/01/14 08:48:41;;;;;;;1.63;0.90;;;19.50;58.90;;;;;;4975078;28;20209;-71
2023/01/14 08:51:10;;;;;;;3.58;1.40;;;19.50;58.70;;;;;;4959201;28;20185;-72
2023/01/14 08:53:38;;;;;;;3.05;1.17;;;19.50;58.70;;;;;;4976681;28;20261;-71
2023/01/14 08:56:09;;;;;;;1.42;0.90;;;19.50;58.70;;;;;;4975247;28;20325;-71
2023/01/14 08:58:35;;;;;;;2.25;1.10;;;19.50;58.70;;;;;;4958758;28;20696;-71
2023/01/14 09:01:06;;;;;;;1.45;1.10;;;19.50;58.60;;;;;;4975032;28;20267;-72
2023/01/14 09:03:32;;;;;;;1.60;1.00;;;19.50;58.70;;;;;;4945210;29;20260;-71
2023/01/14 09:06:07;;;;;;;1.83;1.10;;;19.50;58.70;;;;;;4956721;29;20214;-72
2023/01/14 09:17:21;;;;;;;1.38;0.90;;;19.50;58.60;;;;;;4994222;28;20184;-71
2023/01/14 09:19:53;;;;;;;3.70;1.13;;;19.50;58.70;;;;;;4966668;28;20266;-70
2023/01/14 09:22:25;;;;;;;1.48;0.90;;;19.50;58.70;;;;;;4939426;28;20242;-72
2023/01/14 09:24:51;;;;;;;4.38;1.27;;;19.50;58.60;;;;;;4964575;28;20629;-72
2023/01/14 09:27:18;;;;;;;2.08;1.13;;;19.50;58.60;;;;;;4958634;28;20217;-71
2023/01/14 09:29:44;;;;;;;3.17;1.30;;;19.50;58.60;;;;;;4959006;28;20276;-72
2023/01/14 09:32:13;;;;;;;1.17;0.90;;;19.50;58.60;;;;;;4939257;29;20204;-69
2023/01/14 09:34:49;;;;;;;2.22;1.10;;;19.50;58.60;;;;;;4939056;29;20784;-70
2023/01/14 09:37:21;;;;;;;2.63;1.38;;;19.50;58.70;;;;;;4923455;29;20278;-70
2023/01/14 09:39:49;;;;;;;1.67;1.10;;;19.50;58.60;;;;;;4950131;28;20580;-72
2023/01/14 09:42:31;;;;;;;3.05;1.38;;;19.50;58.70;;;;;;4966091;28;20194;-71
2023/01/14 09:45:12;;;;;;;1.58;1.00;;;19.50;58.70;;;;;;4957947;28;20221;-72
2023/01/14 09:47:40;;;;;;;1.73;1.10;;;19.50;58.70;;;;;;4957916;28;20223;-72
2023/01/14 09:50:14;;;;;;;1.42;1.10;;;19.60;58.70;;;;;;4963826;28;20193;-71
2023/01/14 09:53:04;;;;;;;2.40;1.10;;;19.50;58.60;;;;;;4929336;28;20186;-71
2023/01/14 09:55:48;;;;;;;1.92;1.05;;;19.50;58.60;;;;;;4951403;28;20214;-72
2023/01/14 09:58:51;;;;;;;2.45;1.00;;;19.50;58.60;;;;;;4954869;28;20201;-71
2023/01/14 10:01:20;;;;;;;2.53;1.13;;;19.50;58.70;;;;;;4949837;28;20186;-72
2023/01/14 10:04:23;;;;;;;1.42;0.90;;;19.50;58.60;;;;;;4957986;28;20197;-72
2023/01/14 10:06:55;;;;;;;2.40;1.30;;;19.50;58.60;;;;;;4963207;28;20217;-71
2023/01/14 10:09:34;;;;;;;1.55;1.10;;;19.50;58.60;;;;;;4955785;28;20196;-71
2023/01/14 10:12:05;;;;;;;2.47;1.10;;;19.50;58.60;;;;;;4965474;28;20213;-71
2023/01/14 10:14:43;;;;;;;2.25;1.10;;;19.60;58.60;;;;;;4973584;28;20205;-72
2023/01/14 10:17:17;;;;;;;2.45;1.10;;;19.60;58.70;;;;;;4957570;28;20574;-71
2023/01/14 10:19:49;;;;;;;1.92;1.20;;;19.60;58.60;;;;;;4973465;28;20182;-70
2023/01/14 10:22:35;;;;;;;2.28;1.00;;;19.60;58.60;;;;;;4957508;28;20284;-69
2023/01/14 10:25:04;;;;;;;2.38;1.30;;;19.60;58.60;;;;;;4974546;28;20212;-70
2023/01/14 10:27:31;;;;;;;2.10;1.10;;;19.50;58.60;;;;;;4957549;28;20205;-69
2023/01/14 10:30:22;;;;;;;2.10;1.20;;;19.60;58.60;;;;;;4948574;29;20190;-69
2023/01/14 10:32:51;;;;;;;1.27;1.05;;;19.60;58.60;;;;;;4969252;28;20200;-69
2023/01/14 10:35:31;;;;;;;1.70;1.10;;;19.60;58.60;;;;;;4941171;28;20296;-69
2023/01/14 10:37:57;;;;;;;2.45;1.15;;;19.60;58.60;;;;;;4973338;28;20197;-69
2023/01/14 10:40:26;;;;;;;1.85;1.10;;;19.60;58.60;;;;;;4988737;28;20248;-69
2023/01/14 10:42:54;;;;;;;1.33;1.10;;;19.60;58.60;;;;;;4941702;29;20277;-69
2023/01/14 10:45:19;;;;;;;2.55;1.05;;;19.60;58.60;;;;;;4971455;23;20256;-66
2023/01/14 10:47:49;;;;;;;2.40;1.00;;;19.60;58.60;;;;;;4956836;28;20194;-65
2023/01/14 10:50:18;;;;;;;2.40;1.25;;;19.60;58.60;;;;;;4974901;28;20812;-66
2023/01/14 10:52:44;;;;;;;2.67;1.15;;;19.60;58.60;;;;;;4961654;28;20232;-66
2023/01/14 10:55:18;;;;;;;4.32;1.00;;;19.60;58.60;;;;;;4956968;28;20691;-66
2023/01/14 10:58:00;;;;;;;2.25;1.13;;;19.60;58.60;;;;;;4944115;28;20624;-66
2023/01/14 11:00:37;;;;;;;2.17;1.00;;;19.60;58.60;;;;;;4968692;28;20200;-67
2023/01/14 11:03:18;;;;;;;1.45;1.20;;;19.60;58.60;;;;;;4975973;28;20192;-65
2023/01/14 11:05:44;;;;;;;1.45;1.10;;;19.60;58.60;;;;;;4974962;28;20216;-67
2023/01/14 11:08:32;;;;;;;1.67;1.10;;;19.60;58.60;;;;;;4958334;28;20204;-66
2023/01/14 11:11:15;;;;;;;1.98;1.23;;;19.60;58.60;;;;;;4964834;28;20240;-66
2023/01/14 11:13:48;;;;;;;1.20;1.08;;;19.60;58.60;;;;;;4986545;28;20192;-66
2023/01/14 11:16:27;;;;;;;2.22;1.20;;;19.60;58.60;;;;;;4958507;28;20217;-66
2023/01/14 11:19:03;;;;;;;3.00;1.30;;;19.60;58.60;;;;;;4959267;28;20288;-67
2023/01/14 11:21:52;;;;;;;1.42;1.00;;;19.60;58.60;;;;;;4992681;28;20184;-67
2023/01/14 11:24:54;;;;;;;2.90;1.38;;;19.60;58.60;;;;;;4958822;28;20200;-67
2023/01/14 11:27:24;;;;;;;2.25;1.45;;;19.60;58.60;;;;;;4944011;28;20224;-66
2023/01/14 11:29:59;;;;;;;2.53;1.00;;;19.60;58.60;;;;;;4958642;28;20204;-65
2023/01/14 11:32:34;;;;;;;1.30;1.17;;;19.60;58.60;;;;;;4969825;28;20185;-66
2023/01/14 11:35:17;;;;;;;2.72;1.50;;;19.60;58.60;;;;;;4975425;28;20208;-66
2023/01/14 11:37:47;;;;;;;1.65;1.40;;;19.60;58.60;;;;;;4959458;28;20193;-67
2023/01/14 11:43:25;;;;;;;2.72;1.38;;;19.60;58.60;;;;;;4975337;28;20212;-65
2023/01/14 11:46:15;;;;;;;2.95;1.25;;;19.60;58.60;;;;;;4979643;28;20220;-67
2023/01/14 11:48:42;;;;;;;2.35;1.45;;;19.60;58.70;;;;;;4959300;28;20219;-67
2023/01/14 11:51:20;;;;;;;1.35;1.25;;;19.60;58.70;;;;;;4975401;28;20185;-67
2023/01/14 11:53:50;;;;;;;1.95;1.17;;;19.60;58.70;;;;;;4992615;28;20268;-67
2023/01/14 11:56:25;;;;;;;1.58;1.10;;;19.60;58.70;;;;;;4975369;28;20246;-67
2023/01/14 11:58:51;;;;;;;2.88;1.30;;;19.60;58.60;;;;;;4959198;28;20267;-66
2023/01/14 12:01:39;;;;;;;2.22;1.35;;;19.60;58.60;;;;;;4965267;28;20279;-67
2023/01/14 12:04:19;;;;;;;2.17;1.20;;;19.60;58.60;;;;;;4963264;28;20189;-68
2023/01/14 12:07:12;;;;;;;1.48;1.35;;;19.60;58.60;;;;;;4997134;28;20220;-67
2023/01/14 12:09:47;;;;;;;3.03;1.10;;;19.60;58.60;;;;;;5011909;28;20185;-67
2023/01/14 12:19:26;;;;;;;1.92;1.20;;;19.60;58.60;;;;;;4960509;28;20220;-67
2023/01/14 12:22:19;;;;;;;2.42;1.30;;;19.60;58.60;;;;;;4975030;28;20189;-67
2023/01/14 12:25:30;;;;;;;1.30;1.00;;;19.60;58.60;;;;;;4975056;28;20172;-66
2023/01/14 12:28:12;;;;;;;3.58;1.30;;;19.60;58.60;;;;;;4980807;28;20209;-67
2023/01/14 12:31:14;;;;;;;1.60;1.10;;;19.70;58.70;;;;;;4960956;28;20284;-67
2023/01/14 12:33:52;;;;;;;2.10;1.30;;;19.60;58.60;;;;;;4978725;28;20273;-67
2023/01/14 12:36:31;;;;;;;1.50;1.30;;;19.70;58.70;;;;;;4964983;28;20201;-66
2023/01/14 12:48:03;;;;;;;2.22;1.45;;;19.60;58.60;;;;;;4971913;28;20198;-67
2023/01/14 12:50:30;;;;;;;3.67;1.45;;;19.60;58.60;;;;;;4972103;28;20189;-67
2023/01/14 12:52:58;;;;;;;1.55;1.13;;;19.60;58.60;;;;;;4975234;28;20196;-67
2023/01/14 12:55:34;;;;;;;2.08;1.30;;;19.60;58.60;;;;;;4977377;28;20702;-67
2023/01/14 12:58:04;;;;;;;2.65;1.20;;;19.60;58.60;;;;;;5001266;28;20195;-67
2023/01/14 13:00:34;;;;;;;2.63;1.10;;;19.60;58.60;;;;;;5002056;28;20185;-67
2023/01/14 13:03:07;;;;;;;2.67;1.30;;;19.60;58.70;;;;;;4994219;28;20279;-67
2023/01/14 13:05:42;;;;;;;1.90;1.02;;;19.60;58.60;;;;;;4960196;28;20220;-67
2023/01/14 13:08:29;;;;;;;1.75;1.10;;;19.60;58.60;;;;;;4975220;28;20239;-67
2023/01/14 13:11:05;;;;;;;1.65;1.10;;;19.60;58.60;;;;;;4998516;28;20234;-67
2023/01/14 13:13:34;;;;;;;2.22;1.45;;;19.60;58.60;;;;;;4966541;28;20248;-67
2023/01/14 13:16:04;;;;;;;1.55;1.20;;;19.60;58.70;;;;;;4984107;28;20212;-67
2023/01/14 13:18:36;;;;;;;1.42;1.20;;;19.60;58.60;;;;;;4958654;28;20217;-67
2023/01/14 13:21:06;;;;;;;3.63;1.67;;;19.60;58.60;;;;;;4970854;28;20201;-67
2023/01/14 13:23:44;;;;;;;2.17;1.38;;;19.60;58.60;;;;;;5000037;28;20212;-67
2023/01/14 13:26:20;;;;;;;1.48;1.05;;;19.60;58.60;;;;;;4963024;28;20213;-68
2023/01/14 13:29:15;;;;;;;2.53;1.30;;;19.60;58.60;;;;;;4974237;28;20201;-67
2023/01/14 13:31:42;;;;;;;2.00;1.33;;;19.60;58.60;;;;;;4971234;28;20236;-67
2023/01/14 13:34:32;;;;;;;2.65;1.10;;;19.60;58.60;;;;;;4961642;28;20185;-67
2023/01/14 13:37:04;;;;;;;2.72;1.30;;;19.60;58.80;;;;;;4982310;28;20598;-67
2023/01/14 13:39:32;;;;;;;1.67;1.20;;;19.60;58.70;;;;;;4971117;28;20243;-67
2023/01/14 13:42:23;;;;;;;3.20;1.30;;;19.70;58.80;;;;;;5003512;28;20196;-67
2023/01/14 13:44:51;;;;;;;2.05;1.13;;;19.60;58.70;;;;;;4982165;28;20229;-67
2023/01/14 13:47:22;;;;;;;1.50;1.10;;;19.60;58.70;;;;;;4976037;28;20225;-67
2023/01/14 13:50:02;;;;;;;3.45;1.45;;;19.60;58.70;;;;;;4977479;28;20236;-67
2023/01/14 13:52:34;;;;;;;2.33;1.10;;;19.60;58.70;;;;;;4969097;28;20220;-67
2023/01/14 13:55:32;;;;;;;2.22;1.40;;;19.60;58.70;;;;;;4994524;28;20294;-67
2023/01/14 13:58:15;;;;;;;1.73;1.02;;;19.60;58.70;;;;;;4958563;28;20197;-67
2023/01/14 14:00:46;;;;;;;2.17;1.10;;;19.60;58.60;;;;;;4982324;28;20199;-67
2023/01/14 14:03:38;;;;;;;2.00;1.27;;;19.60;58.60;;;;;;4987881;28;20193;-67